Iemanja 2 — FGF3556 — position and weather

sailwx.info

Track history (hours):
 
Tides and Currents Weather Stations Pressure Air Temp Water Temp Dewpoint Dewpoint Depression Visibility Wind Speed Wind Dir Waves Ship Positions

Iemanja 2

Last reported at 2018-Jul-17 18:03 UTC. Time now 2018-Jul-20 04:52 UTC.
Position N 47°40' W 003°12'.

Length 14 m.

Type: Sailing vessel. MMSI: 227713130.

Date/timePositionNaut miles runAvg speedWind from/ knotsBaromVisibWave heightAir tempDewpointWater temp
2018-Jul-17 18:03N 47°40' W 003°12'0 0.0
2018-Jul-17 18:00N 47°40' W 003°12'1 3.0
2018-Jul-17 17:30N 47°38' W 003°13'3 5.9
2018-Jul-17 17:00N 47°35' W 003°12'3 6.7
2018-Jul-17 16:30N 47°32' W 003°11'3 6.3
2018-Jul-17 16:00N 47°29' W 003°09'2 3.7
2018-Jul-17 15:30N 47°28' W 003°08'2 4.3
2018-Jul-17 15:00N 47°26' W 003°06'2 3.3
2018-Jul-17 14:19N 47°27' W 003°02'2 4.8
2018-Jul-17 13:58N 47°29' W 003°02'3 6.4
2018-Jul-17 13:29N 47°31' W 003°01'3 5.6
2018-Jul-17 12:58N 47°34' W 003°01'1 2.5
2018-Jul-17 12:28N 47°35' W 003°02'0 0.0
2018-Jul-17 11:58N 47°35' W 003°02'0 0.0
2018-Jul-17 11:28N 47°35' W 003°02'0 0.0
2018-Jul-17 10:58N 47°35' W 003°02'0 0.0
2018-Jul-17 10:28N 47°35' W 003°02'  
2018-Jul-10 12:04N 47°36' W 003°02'0 0.0
2018-Jul-10 11:58N 47°36' W 003°02'  
Track history (hours):
 
Tides and Currents Weather Stations Pressure Air Temp Water Temp Dewpoint Dewpoint Depression Visibility Wind Speed Wind Dir Waves Ship Positions

Iemanja 2

Last reported at 2018-Jul-17 18:03 UTC. Time now 2018-Jul-20 04:52 UTC.
Position N 47°40' W 003°12'.

Length 14 m.

Type: Sailing vessel. MMSI: 227713130.

Date/timePositionNaut miles runAvg speedWind from/ knotsBaromVisibWave heightAir tempDewpointWater temp
2018-Jul-17 18:03N 47°40' W 003°12'0 0.0
2018-Jul-17 18:00N 47°40' W 003°12'1 3.0
2018-Jul-17 17:30N 47°38' W 003°13'3 5.9
2018-Jul-17 17:00N 47°35' W 003°12'3 6.7
2018-Jul-17 16:30N 47°32' W 003°11'3 6.3
2018-Jul-17 16:00N 47°29' W 003°09'2 3.7
2018-Jul-17 15:30N 47°28' W 003°08'2 4.3
2018-Jul-17 15:00N 47°26' W 003°06'2 3.3
2018-Jul-17 14:19N 47°27' W 003°02'2 4.8
2018-Jul-17 13:58N 47°29' W 003°02'3 6.4
2018-Jul-17 13:29N 47°31' W 003°01'3 5.6
2018-Jul-17 12:58N 47°34' W 003°01'1 2.5
2018-Jul-17 12:28N 47°35' W 003°02'0 0.0
2018-Jul-17 11:58N 47°35' W 003°02'0 0.0
2018-Jul-17 11:28N 47°35' W 003°02'0 0.0
2018-Jul-17 10:58N 47°35' W 003°02'0 0.0
2018-Jul-17 10:28N 47°35' W 003°02'  
2018-Jul-10 12:04N 47°36' W 003°02'0 0.0
2018-Jul-10 11:58N 47°36' W 003°02'  

Dump ship's entire track history